<?xml version='1.0' encoding='UTF-8'?>
<gpx version="1.1" creator="https://www.komoot.de" xmlns="http://www.topografix.com/GPX/1/1" xmlns:xsi="http://www.w3.org/2001/XMLSchema-instance" xsi:schemaLocation="http://www.topografix.com/GPX/1/1 http://www.topografix.com/GPX/1/1/gpx.xsd">
  <metadata>
    <name>PW 5km</name>
    <author>
      <link href="https://www.komoot.de">
        <text>komoot</text>
        <type>text/html</type>
      </link>
    </author>
  </metadata>
  <trk>
    <name>PW 5km</name>
    <trkseg>
      <trkpt lat="48.222605" lon="11.119147">
        <ele>565.760992</ele>
        <time>2022-04-07T18:34:14.236Z</time>
      </trkpt>
      <trkpt lat="48.222881" lon="11.118880">
        <ele>565.760992</ele>
        <time>2022-04-07T18:34:48.446Z</time>
      </trkpt>
      <trkpt lat="48.223131" lon="11.118782">
        <ele>565.760992</ele>
        <time>2022-04-07T18:35:15.586Z</time>
      </trkpt>
      <trkpt lat="48.223148" lon="11.118778">
        <ele>565.760992</ele>
        <time>2022-04-07T18:35:17.392Z</time>
      </trkpt>
      <trkpt lat="48.223416" lon="11.118724">
        <ele>565.760992</ele>
        <time>2022-04-07T18:35:45.904Z</time>
      </trkpt>
      <trkpt lat="48.223732" lon="11.118555">
        <ele>566.071246</ele>
        <time>2022-04-07T18:36:21.074Z</time>
      </trkpt>
      <trkpt lat="48.223834" lon="11.118816">
        <ele>566.272684</ele>
        <time>2022-04-07T18:36:42.283Z</time>
      </trkpt>
      <trkpt lat="48.223866" lon="11.118856">
        <ele>566.314296</ele>
        <time>2022-04-07T18:36:46.557Z</time>
      </trkpt>
      <trkpt lat="48.223893" lon="11.118892">
        <ele>566.350382</ele>
        <time>2022-04-07T18:36:50.311Z</time>
      </trkpt>
      <trkpt lat="48.223911" lon="11.118915">
        <ele>566.374003</ele>
        <time>2022-04-07T18:36:52.757Z</time>
      </trkpt>
      <trkpt lat="48.224090" lon="11.119118">
        <ele>566.598177</ele>
        <time>2022-04-07T18:37:16.270Z</time>
      </trkpt>
      <trkpt lat="48.224427" lon="11.119500">
        <ele>567.020152</ele>
        <time>2022-04-07T18:38:00.203Z</time>
      </trkpt>
      <trkpt lat="48.224649" lon="11.119668">
        <ele>567.268579</ele>
        <time>2022-04-07T18:38:25.805Z</time>
      </trkpt>
      <trkpt lat="48.224843" lon="11.119724">
        <ele>567.465982</ele>
        <time>2022-04-07T18:38:45.959Z</time>
      </trkpt>
      <trkpt lat="48.224911" lon="11.119716">
        <ele>567.534138</ele>
        <time>2022-04-07T18:38:52.853Z</time>
      </trkpt>
      <trkpt lat="48.224955" lon="11.119712">
        <ele>567.556552</ele>
        <time>2022-04-07T18:38:57.370Z</time>
      </trkpt>
      <trkpt lat="48.225079" lon="11.119693">
        <ele>567.545924</ele>
        <time>2022-04-07T18:39:10.015Z</time>
      </trkpt>
      <trkpt lat="48.225197" lon="11.119678">
        <ele>567.535826</ele>
        <time>2022-04-07T18:39:21.891Z</time>
      </trkpt>
      <trkpt lat="48.225504" lon="11.119638">
        <ele>567.509551</ele>
        <time>2022-04-07T18:39:53.019Z</time>
      </trkpt>
      <trkpt lat="48.226000" lon="11.119646">
        <ele>567.467255</ele>
        <time>2022-04-07T18:40:42.825Z</time>
      </trkpt>
      <trkpt lat="48.226462" lon="11.119737">
        <ele>567.427524</ele>
        <time>2022-04-07T18:41:29.887Z</time>
      </trkpt>
      <trkpt lat="48.226922" lon="11.119830">
        <ele>567.348157</ele>
        <time>2022-04-07T18:42:16.734Z</time>
      </trkpt>
      <trkpt lat="48.228375" lon="11.119727">
        <ele>566.932794</ele>
        <time>2022-04-07T18:44:43.191Z</time>
      </trkpt>
      <trkpt lat="48.228964" lon="11.119765">
        <ele>566.701127</ele>
        <time>2022-04-07T18:45:42.403Z</time>
      </trkpt>
      <trkpt lat="48.229483" lon="11.120043">
        <ele>566.465217</ele>
        <time>2022-04-07T18:46:37.879Z</time>
      </trkpt>
      <trkpt lat="48.230567" lon="11.121263">
        <ele>565.460476</ele>
        <time>2022-04-07T18:48:55.257Z</time>
      </trkpt>
      <trkpt lat="48.230567" lon="11.121263">
        <ele>565.460476</ele>
        <time>2022-04-07T18:48:55.402Z</time>
      </trkpt>
      <trkpt lat="48.232283" lon="11.122070">
        <ele>563.373724</ele>
        <time>2022-04-07T18:52:00.707Z</time>
      </trkpt>
      <trkpt lat="48.232531" lon="11.122278">
        <ele>563.068452</ele>
        <time>2022-04-07T18:52:29.937Z</time>
      </trkpt>
      <trkpt lat="48.232901" lon="11.123125">
        <ele>562.343422</ele>
        <time>2022-04-07T18:53:38.933Z</time>
      </trkpt>
      <trkpt lat="48.233082" lon="11.123381">
        <ele>562.076196</ele>
        <time>2022-04-07T18:54:04.128Z</time>
      </trkpt>
      <trkpt lat="48.233205" lon="11.123493">
        <ele>561.931637</ele>
        <time>2022-04-07T18:54:18.644Z</time>
      </trkpt>
      <trkpt lat="48.234008" lon="11.124227">
        <ele>561.012328</ele>
        <time>2022-04-07T18:55:53.357Z</time>
      </trkpt>
      <trkpt lat="48.234918" lon="11.125328">
        <ele>558.911181</ele>
        <time>2022-04-07T18:57:53.949Z</time>
      </trkpt>
      <trkpt lat="48.236318" lon="11.126509">
        <ele>553.773810</ele>
        <time>2022-04-07T19:00:47.641Z</time>
      </trkpt>
      <trkpt lat="48.236670" lon="11.126940">
        <ele>552.588727</ele>
        <time>2022-04-07T19:01:36.816Z</time>
      </trkpt>
      <trkpt lat="48.236889" lon="11.127318">
        <ele>551.718111</ele>
        <time>2022-04-07T19:02:12.282Z</time>
      </trkpt>
      <trkpt lat="48.236925" lon="11.127381">
        <ele>551.573862</ele>
        <time>2022-04-07T19:02:18.235Z</time>
      </trkpt>
      <trkpt lat="48.238038" lon="11.126993">
        <ele>550.174441</ele>
        <time>2022-04-07T19:04:15.917Z</time>
      </trkpt>
      <trkpt lat="48.238903" lon="11.126364">
        <ele>551.390621</ele>
        <time>2022-04-07T19:05:58.241Z</time>
      </trkpt>
      <trkpt lat="48.239114" lon="11.125971">
        <ele>551.816050</ele>
        <time>2022-04-07T19:06:35.160Z</time>
      </trkpt>
      <trkpt lat="48.239317" lon="11.125120">
        <ele>553.562000</ele>
        <time>2022-04-07T19:07:41.998Z</time>
      </trkpt>
      <trkpt lat="48.239644" lon="11.123754">
        <ele>556.654704</ele>
        <time>2022-04-07T19:09:29.151Z</time>
      </trkpt>
      <trkpt lat="48.239755" lon="11.123582">
        <ele>557.164984</ele>
        <time>2022-04-07T19:09:47.426Z</time>
      </trkpt>
      <trkpt lat="48.240580" lon="11.122802">
        <ele>561.082178</ele>
        <time>2022-04-07T19:11:37.721Z</time>
      </trkpt>
      <trkpt lat="48.240763" lon="11.122523">
        <ele>562.173052</ele>
        <time>2022-04-07T19:12:08.115Z</time>
      </trkpt>
      <trkpt lat="48.240953" lon="11.121761">
        <ele>564.439693</ele>
        <time>2022-04-07T19:13:10.850Z</time>
      </trkpt>
      <trkpt lat="48.241029" lon="11.121597">
        <ele>564.996272</ele>
        <time>2022-04-07T19:13:26.730Z</time>
      </trkpt>
      <trkpt lat="48.241036" lon="11.121116">
        <ele>565.950348</ele>
        <time>2022-04-07T19:14:04.248Z</time>
      </trkpt>
      <trkpt lat="48.240918" lon="11.120801">
        <ele>566.611653</ele>
        <time>2022-04-07T19:14:31.686Z</time>
      </trkpt>
      <trkpt lat="48.240760" lon="11.120106">
        <ele>567.955411</ele>
        <time>2022-04-07T19:15:26.633Z</time>
      </trkpt>
      <trkpt lat="48.240740" lon="11.119547">
        <ele>568.979746</ele>
        <time>2022-04-07T19:16:06.541Z</time>
      </trkpt>
      <trkpt lat="48.240736" lon="11.119440">
        <ele>569.175843</ele>
        <time>2022-04-07T19:16:13.784Z</time>
      </trkpt>
      <trkpt lat="48.240637" lon="11.119224">
        <ele>569.655629</ele>
        <time>2022-04-07T19:16:32.479Z</time>
      </trkpt>
      <trkpt lat="48.240100" lon="11.119024">
        <ele>569.731879</ele>
        <time>2022-04-07T19:17:28.342Z</time>
      </trkpt>
      <trkpt lat="48.239488" lon="11.118680">
        <ele>568.993054</ele>
        <time>2022-04-07T19:18:35.303Z</time>
      </trkpt>
      <trkpt lat="48.238849" lon="11.118559">
        <ele>568.264876</ele>
        <time>2022-04-07T19:19:42.691Z</time>
      </trkpt>
      <trkpt lat="48.238350" lon="11.118465">
        <ele>567.439065</ele>
        <time>2022-04-07T19:20:35.375Z</time>
      </trkpt>
      <trkpt lat="48.238090" lon="11.118364">
        <ele>566.950786</ele>
        <time>2022-04-07T19:21:03.302Z</time>
      </trkpt>
      <trkpt lat="48.237019" lon="11.117676">
        <ele>564.838715</ele>
        <time>2022-04-07T19:23:03.951Z</time>
      </trkpt>
      <trkpt lat="48.235919" lon="11.117157">
        <ele>563.501137</ele>
        <time>2022-04-07T19:25:02.812Z</time>
      </trkpt>
      <trkpt lat="48.235351" lon="11.117068">
        <ele>562.838652</ele>
        <time>2022-04-07T19:26:00.951Z</time>
      </trkpt>
      <trkpt lat="48.233939" lon="11.117436">
        <ele>562.697220</ele>
        <time>2022-04-07T19:28:24.689Z</time>
      </trkpt>
      <trkpt lat="48.233001" lon="11.117594">
        <ele>563.029728</ele>
        <time>2022-04-07T19:30:00.346Z</time>
      </trkpt>
      <trkpt lat="48.232290" lon="11.117569">
        <ele>563.519464</ele>
        <time>2022-04-07T19:31:13.517Z</time>
      </trkpt>
      <trkpt lat="48.231947" lon="11.117694">
        <ele>563.762518</ele>
        <time>2022-04-07T19:31:50.050Z</time>
      </trkpt>
      <trkpt lat="48.230608" lon="11.119035">
        <ele>565.233567</ele>
        <time>2022-04-07T19:34:37.001Z</time>
      </trkpt>
      <trkpt lat="48.229584" lon="11.119578">
        <ele>566.034221</ele>
        <time>2022-04-07T19:36:28.740Z</time>
      </trkpt>
      <trkpt lat="48.229115" lon="11.119674">
        <ele>566.321966</ele>
        <time>2022-04-07T19:37:16.995Z</time>
      </trkpt>
      <trkpt lat="48.228964" lon="11.119765">
        <ele>566.420880</ele>
        <time>2022-04-07T19:37:33.604Z</time>
      </trkpt>
      <trkpt lat="48.228375" lon="11.119727">
        <ele>566.756590</ele>
        <time>2022-04-07T19:38:33.514Z</time>
      </trkpt>
      <trkpt lat="48.226922" lon="11.119830">
        <ele>567.318247</ele>
        <time>2022-04-07T19:41:00.969Z</time>
      </trkpt>
      <trkpt lat="48.226462" lon="11.119737">
        <ele>567.427363</ele>
        <time>2022-04-07T19:41:48.100Z</time>
      </trkpt>
      <trkpt lat="48.226000" lon="11.119646">
        <ele>567.460384</ele>
        <time>2022-04-07T19:42:35.491Z</time>
      </trkpt>
      <trkpt lat="48.225504" lon="11.119638">
        <ele>567.495535</ele>
        <time>2022-04-07T19:43:25.430Z</time>
      </trkpt>
      <trkpt lat="48.225197" lon="11.119678">
        <ele>567.517373</ele>
        <time>2022-04-07T19:43:56.474Z</time>
      </trkpt>
      <trkpt lat="48.225079" lon="11.119693">
        <ele>567.525765</ele>
        <time>2022-04-07T19:44:08.336Z</time>
      </trkpt>
      <trkpt lat="48.224955" lon="11.119712">
        <ele>567.534598</ele>
        <time>2022-04-07T19:44:20.896Z</time>
      </trkpt>
      <trkpt lat="48.224911" lon="11.119716">
        <ele>567.537722</ele>
        <time>2022-04-07T19:44:25.375Z</time>
      </trkpt>
      <trkpt lat="48.224843" lon="11.119724">
        <ele>567.539067</ele>
        <time>2022-04-07T19:44:32.210Z</time>
      </trkpt>
      <trkpt lat="48.224649" lon="11.119668">
        <ele>567.539067</ele>
        <time>2022-04-07T19:44:52.231Z</time>
      </trkpt>
      <trkpt lat="48.224427" lon="11.119500">
        <ele>567.539067</ele>
        <time>2022-04-07T19:45:17.531Z</time>
      </trkpt>
      <trkpt lat="48.224090" lon="11.119118">
        <ele>567.539067</ele>
        <time>2022-04-07T19:46:00.769Z</time>
      </trkpt>
      <trkpt lat="48.223911" lon="11.118915">
        <ele>567.539067</ele>
        <time>2022-04-07T19:46:23.842Z</time>
      </trkpt>
      <trkpt lat="48.223893" lon="11.118892">
        <ele>567.539067</ele>
        <time>2022-04-07T19:46:26.250Z</time>
      </trkpt>
      <trkpt lat="48.223866" lon="11.118856">
        <ele>567.539067</ele>
        <time>2022-04-07T19:46:29.947Z</time>
      </trkpt>
      <trkpt lat="48.223834" lon="11.118816">
        <ele>567.539067</ele>
        <time>2022-04-07T19:46:34.151Z</time>
      </trkpt>
      <trkpt lat="48.223732" lon="11.118555">
        <ele>567.539067</ele>
        <time>2022-04-07T19:46:54.962Z</time>
      </trkpt>
      <trkpt lat="48.223416" lon="11.118724">
        <ele>567.539067</ele>
        <time>2022-04-07T19:47:29.479Z</time>
      </trkpt>
      <trkpt lat="48.223148" lon="11.118778">
        <ele>567.539067</ele>
        <time>2022-04-07T19:47:57.393Z</time>
      </trkpt>
      <trkpt lat="48.223131" lon="11.118782">
        <ele>567.539067</ele>
        <time>2022-04-07T19:47:59.162Z</time>
      </trkpt>
      <trkpt lat="48.222881" lon="11.118880">
        <ele>567.539067</ele>
        <time>2022-04-07T19:48:25.758Z</time>
      </trkpt>
      <trkpt lat="48.222605" lon="11.119147">
        <ele>567.539067</ele>
        <time>2022-04-07T19:48:59.397Z</time>
      </trkpt>
    </trkseg>
  </trk>
</gpx>